sensor_id;sensor_type;location;lat;lon;timestamp;pressure;altitude;pressure_sealevel;temperature;humidity
10958;BME280;5531;42.570;23.676;2023-02-11T00:02:15;93434.69;;;-4.86;79.73
10958;BME280;5531;42.570;23.676;2023-02-11T00:04:49;93452.16;;;-4.95;79.81
10958;BME280;5531;42.570;23.676;2023-02-11T00:07:23;93437.38;;;-5.08;80.81
10958;BME280;5531;42.570;23.676;2023-02-11T00:09:53;93437.66;;;-5.14;81.45
10958;BME280;5531;42.570;23.676;2023-02-11T00:12:23;93431.03;;;-5.18;82.61
10958;BME280;5531;42.570;23.676;2023-02-11T00:14:56;93434.34;;;-5.16;82.64
10958;BME280;5531;42.570;23.676;2023-02-11T00:17:25;93430.94;;;-5.17;83.05
10958;BME280;5531;42.570;23.676;2023-02-11T00:19:58;93430.19;;;-5.19;83.78
10958;BME280;5531;42.570;23.676;2023-02-11T00:22:27;93420.09;;;-5.22;84.70
10958;BME280;5531;42.570;23.676;2023-02-11T00:24:58;93430.94;;;-5.17;84.40
10958;BME280;5531;42.570;23.676;2023-02-11T00:27:27;93433.38;;;-5.13;84.65
10958;BME280;5531;42.570;23.676;2023-02-11T00:29:59;93432.69;;;-5.17;84.95
10958;BME280;5531;42.570;23.676;2023-02-11T00:32:30;93440.28;;;-5.16;85.36
10958;BME280;5531;42.570;23.676;2023-02-11T00:35:00;93435.03;;;-5.12;85.41
10958;BME280;5531;42.570;23.676;2023-02-11T00:37:29;93434.00;;;-5.08;85.45
10958;BME280;5531;42.570;23.676;2023-02-11T00:40:02;93432.16;;;-5.05;84.40
10958;BME280;5531;42.570;23.676;2023-02-11T00:42:33;93439.75;;;-5.03;84.62
10958;BME280;5531;42.570;23.676;2023-02-11T00:45:06;93437.25;;;-5.05;84.26
10958;BME280;5531;42.570;23.676;2023-02-11T00:47:41;93429.72;;;-5.08;84.68
10958;BME280;5531;42.570;23.676;2023-02-11T00:50:11;93415.41;;;-5.12;85.15
10958;BME280;5531;42.570;23.676;2023-02-11T00:52:46;93418.75;;;-5.10;85.20
10958;BME280;5531;42.570;23.676;2023-02-11T00:55:24;93430.53;;;-5.07;84.19
10958;BME280;5531;42.570;23.676;2023-02-11T00:57:56;93419.63;;;-5.11;83.69
10958;BME280;5531;42.570;23.676;2023-02-11T01:00:29;93419.72;;;-5.12;84.55
10958;BME280;5531;42.570;23.676;2023-02-11T01:02:59;93408.66;;;-5.13;84.45
10958;BME280;5531;42.570;23.676;2023-02-11T01:05:28;93409.75;;;-5.19;83.88
10958;BME280;5531;42.570;23.676;2023-02-11T01:07:58;93408.94;;;-5.19;84.50
10958;BME280;5531;42.570;23.676;2023-02-11T01:10:28;93414.78;;;-5.17;84.43
10958;BME280;5531;42.570;23.676;2023-02-11T01:12:57;93413.16;;;-5.18;84.41
10958;BME280;5531;42.570;23.676;2023-02-11T01:15:33;93406.50;;;-5.22;83.68
10958;BME280;5531;42.570;23.676;2023-02-11T01:18:09;93412.69;;;-5.26;83.53
10958;BME280;5531;42.570;23.676;2023-02-11T01:20:50;93405.22;;;-5.31;83.99
10958;BME280;5531;42.570;23.676;2023-02-11T01:23:23;93397.69;;;-5.34;84.73
10958;BME280;5531;42.570;23.676;2023-02-11T01:25:56;93403.59;;;-5.34;84.96
10958;BME280;5531;42.570;23.676;2023-02-11T01:28:29;93396.16;;;-5.38;84.41
10958;BME280;5531;42.570;23.676;2023-02-11T01:31:02;93398.41;;;-5.51;84.69
10958;BME280;5531;42.570;23.676;2023-02-11T01:33:32;93403.22;;;-5.64;85.36
10958;BME280;5531;42.570;23.676;2023-02-11T01:36:03;93399.97;;;-5.67;85.94
10958;BME280;5531;42.570;23.676;2023-02-11T01:38:33;93395.97;;;-5.73;86.17
10958;BME280;5531;42.570;23.676;2023-02-11T01:41:08;93391.81;;;-5.76;86.95
10958;BME280;5531;42.570;23.676;2023-02-11T01:43:44;93381.94;;;-5.83;86.75
10958;BME280;5531;42.570;23.676;2023-02-11T01:46:25;93385.59;;;-5.89;87.39
10958;BME280;5531;42.570;23.676;2023-02-11T01:49:00;93388.25;;;-5.92;87.88
10958;BME280;5531;42.570;23.676;2023-02-11T01:51:35;93390.00;;;-5.93;87.76
10958;BME280;5531;42.570;23.676;2023-02-11T01:54:07;93384.34;;;-5.99;87.08
10958;BME280;5531;42.570;23.676;2023-02-11T01:56:51;93388.81;;;-6.04;87.80
10958;BME280;5531;42.570;23.676;2023-02-11T01:59:39;93386.78;;;-6.17;87.58
10958;BME280;5531;42.570;23.676;2023-02-11T02:02:15;93390.47;;;-6.24;87.88
10958;BME280;5531;42.570;23.676;2023-02-11T02:04:51;93382.56;;;-6.38;88.51
10958;BME280;5531;42.570;23.676;2023-02-11T02:07:32;93374.53;;;-6.50;89.94
10958;BME280;5531;42.570;23.676;2023-02-11T02:10:08;93373.75;;;-6.52;90.35
10958;BME280;5531;42.570;23.676;2023-02-11T02:12:39;93378.13;;;-6.55;91.05
10958;BME280;5531;42.570;23.676;2023-02-11T02:15:25;93373.88;;;-6.55;91.59
10958;BME280;5531;42.570;23.676;2023-02-11T02:18:06;93376.38;;;-6.53;90.95
10958;BME280;5531;42.570;23.676;2023-02-11T02:20:55;93374.00;;;-6.58;90.64
10958;BME280;5531;42.570;23.676;2023-02-11T02:23:48;93374.88;;;-6.59;91.13
10958;BME280;5531;42.570;23.676;2023-02-11T02:32:29;93380.59;;;-6.74;92.05
10958;BME280;5531;42.570;23.676;2023-02-11T02:35:09;93378.06;;;-6.74;91.96
10958;BME280;5531;42.570;23.676;2023-02-11T02:37:43;93383.97;;;-6.74;91.74
10958;BME280;5531;42.570;23.676;2023-02-11T02:40:20;93378.06;;;-6.74;92.06
10958;BME280;5531;42.570;23.676;2023-02-11T02:42:52;93384.78;;;-6.73;91.60
10958;BME280;5531;42.570;23.676;2023-02-11T02:45:23;93384.78;;;-6.73;92.09
10958;BME280;5531;42.570;23.676;2023-02-11T02:47:55;93385.56;;;-6.71;92.07
10958;BME280;5531;42.570;23.676;2023-02-11T02:50:30;93385.56;;;-6.71;92.45
10958;BME280;5531;42.570;23.676;2023-02-11T02:53:12;93385.44;;;-6.68;92.14
10958;BME280;5531;42.570;23.676;2023-02-11T02:56:01;93382.81;;;-6.67;92.33
10958;BME280;5531;42.570;23.676;2023-02-11T02:58:53;93387.81;;;-6.64;92.14
10958;BME280;5531;42.570;23.676;2023-02-11T03:01:35;93381.75;;;-6.61;92.23
10958;BME280;5531;42.570;23.676;2023-02-11T03:04:17;93377.31;;;-6.56;91.30
10958;BME280;5531;42.570;23.676;2023-02-11T03:06:56;93385.00;;;-6.57;90.67
10958;BME280;5531;42.570;23.676;2023-02-11T03:09:32;93381.00;;;-6.63;89.98
10958;BME280;5531;42.570;23.676;2023-02-11T03:12:06;93379.47;;;-6.67;90.11
10958;BME280;5531;42.570;23.676;2023-02-11T03:14:38;93376.16;;;-6.69;89.97
10958;BME280;5531;42.570;23.676;2023-02-11T03:17:09;93379.69;;;-6.73;90.14
10958;BME280;5531;42.570;23.676;2023-02-11T03:19:43;93382.13;;;-6.70;91.04
10958;BME280;5531;42.570;23.676;2023-02-11T03:22:23;93380.53;;;-6.73;90.51
10958;BME280;5531;42.570;23.676;2023-02-11T03:24:55;93377.94;;;-6.71;89.89
10958;BME280;5531;42.570;23.676;2023-02-11T03:27:27;93392.38;;;-6.72;90.14
10958;BME280;5531;42.570;23.676;2023-02-11T03:30:04;93394.97;;;-6.73;90.36
10958;BME280;5531;42.570;23.676;2023-02-11T03:32:39;93389.19;;;-6.77;89.97
10958;BME280;5531;42.570;23.676;2023-02-11T03:35:15;93393.56;;;-6.80;89.98
10958;BME280;5531;42.570;23.676;2023-02-11T03:37:50;93394.28;;;-6.77;90.89
10958;BME280;5531;42.570;23.676;2023-02-11T03:40:22;93380.72;;;-6.77;91.45
10958;BME280;5531;42.570;23.676;2023-02-11T03:42:57;93384.16;;;-6.78;91.47
10958;BME280;5531;42.570;23.676;2023-02-11T03:45:27;93383.84;;;-6.71;91.26
10958;BME280;5531;42.570;23.676;2023-02-11T03:48:00;93380.47;;;-6.71;90.69
10958;BME280;5531;42.570;23.676;2023-02-11T03:50:35;93381.59;;;-6.78;90.38
10958;BME280;5531;42.570;23.676;2023-02-11T03:53:05;93383.50;;;-6.84;90.42
10958;BME280;5531;42.570;23.676;2023-02-11T03:55:37;93380.25;;;-6.87;90.27
10958;BME280;5531;42.570;23.676;2023-02-11T03:58:08;93378.81;;;-6.94;91.15
10958;BME280;5531;42.570;23.676;2023-02-11T04:00:40;93382.97;;;-6.92;90.65
10958;BME280;5531;42.570;23.676;2023-02-11T04:03:10;93372.47;;;-7.06;91.58
10958;BME280;5531;42.570;23.676;2023-02-11T04:05:42;93365.47;;;-7.01;91.35
10958;BME280;5531;42.570;23.676;2023-02-11T04:08:12;93376.63;;;-7.04;91.67
10958;BME280;5531;42.570;23.676;2023-02-11T04:10:41;93367.72;;;-7.15;91.01
10958;BME280;5531;42.570;23.676;2023-02-11T04:13:11;93361.81;;;-7.16;91.22
10958;BME280;5531;42.570;23.676;2023-02-11T04:15:43;93358.06;;;-7.07;90.96
10958;BME280;5531;42.570;23.676;2023-02-11T04:18:13;93363.25;;;-7.09;91.85
10958;BME280;5531;42.570;23.676;2023-02-11T04:20:45;93369.06;;;-7.05;91.93
10958;BME280;5531;42.570;23.676;2023-02-11T04:23:16;93361.34;;;-7.04;91.49
10958;BME280;5531;42.570;23.676;2023-02-11T04:25:46;93367.16;;;-7.00;89.94
10958;BME280;5531;42.570;23.676;2023-02-11T04:28:15;93364.06;;;-7.08;89.83
10958;BME280;5531;42.570;23.676;2023-02-11T04:30:44;93363.53;;;-7.16;90.45
10958;BME280;5531;42.570;23.676;2023-02-11T04:33:13;93364.59;;;-7.22;91.14
10958;BME280;5531;42.570;23.676;2023-02-11T04:35:46;93361.22;;;-7.23;91.03
10958;BME280;5531;42.570;23.676;2023-02-11T04:38:16;93363.00;;;-7.25;90.43
10958;BME280;5531;42.570;23.676;2023-02-11T04:40:45;93368.25;;;-7.29;90.38
10958;BME280;5531;42.570;23.676;2023-02-11T04:43:15;93367.50;;;-7.31;90.66
10958;BME280;5531;42.570;23.676;2023-02-11T04:45:47;93358.13;;;-7.31;90.56
10958;BME280;5531;42.570;23.676;2023-02-11T04:48:16;93360.19;;;-7.41;90.52
10958;BME280;5531;42.570;23.676;2023-02-11T04:50:48;93357.06;;;-7.47;90.74
10958;BME280;5531;42.570;23.676;2023-02-11T04:53:18;93363.94;;;-7.49;90.74
10958;BME280;5531;42.570;23.676;2023-02-11T04:55:48;93353.06;;;-7.55;90.72
10958;BME280;5531;42.570;23.676;2023-02-11T04:58:18;93354.19;;;-7.62;90.62
10958;BME280;5531;42.570;23.676;2023-02-11T05:00:47;93353.53;;;-7.67;91.56
10958;BME280;5531;42.570;23.676;2023-02-11T05:03:16;93348.53;;;-7.70;91.27
10958;BME280;5531;42.570;23.676;2023-02-11T05:05:48;93346.22;;;-7.76;91.65
10958;BME280;5531;42.570;23.676;2023-02-11T05:08:18;93356.44;;;-7.78;91.33
10958;BME280;5531;42.570;23.676;2023-02-11T05:10:47;93348.09;;;-7.81;91.24
10958;BME280;5531;42.570;23.676;2023-02-11T05:13:16;93340.47;;;-7.81;91.23
10958;BME280;5531;42.570;23.676;2023-02-11T05:15:45;93348.00;;;-7.78;91.49
10958;BME280;5531;42.570;23.676;2023-02-11T05:18:15;93347.22;;;-7.80;92.03
10958;BME280;5531;42.570;23.676;2023-02-11T05:20:45;93342.25;;;-7.83;92.75
10958;BME280;5531;42.570;23.676;2023-02-11T05:23:17;93349.63;;;-7.76;92.68
10958;BME280;5531;42.570;23.676;2023-02-11T05:25:46;93338.59;;;-7.76;92.70
10958;BME280;5531;42.570;23.676;2023-02-11T05:28:15;93342.16;;;-7.80;93.44
10958;BME280;5531;42.570;23.676;2023-02-11T05:30:45;93345.28;;;-7.74;92.58
10958;BME280;5531;42.570;23.676;2023-02-11T05:33:14;93337.00;;;-7.79;92.38
10958;BME280;5531;42.570;23.676;2023-02-11T05:35:43;93328.19;;;-7.70;92.14
10958;BME280;5531;42.570;23.676;2023-02-11T05:38:13;93331.34;;;-7.63;92.25
10958;BME280;5531;42.570;23.676;2023-02-11T05:40:45;93337.03;;;-7.57;91.72
10958;BME280;5531;42.570;23.676;2023-02-11T05:43:14;93347.16;;;-7.55;90.96
10958;BME280;5531;42.570;23.676;2023-02-11T05:45:43;93348.06;;;-7.56;91.25
10958;BME280;5531;42.570;23.676;2023-02-11T05:48:13;93347.25;;;-7.58;90.66
10958;BME280;5531;42.570;23.676;2023-02-11T05:50:43;93345.38;;;-7.53;90.70
10958;BME280;5531;42.570;23.676;2023-02-11T05:53:12;93341.03;;;-7.49;90.72
10958;BME280;5531;42.570;23.676;2023-02-11T05:55:45;93343.50;;;-7.48;90.96
10958;BME280;5531;42.570;23.676;2023-02-11T05:58:14;93342.78;;;-7.51;91.15
10958;BME280;5531;42.570;23.676;2023-02-11T06:00:43;93341.69;;;-7.44;91.50
10958;BME280;5531;42.570;23.676;2023-02-11T06:03:12;93346.72;;;-7.43;91.25
10958;BME280;5531;42.570;23.676;2023-02-11T06:05:42;93356.56;;;-7.35;91.08
10958;BME280;5531;42.570;23.676;2023-02-11T06:08:11;93356.41;;;-7.30;91.77
10958;BME280;5531;42.570;23.676;2023-02-11T06:10:46;93353.69;;;-7.26;91.91
10958;BME280;5531;42.570;23.676;2023-02-11T06:13:15;93364.53;;;-7.21;91.40
10958;BME280;5531;42.570;23.676;2023-02-11T06:15:44;93356.91;;;-7.21;91.11
10958;BME280;5531;42.570;23.676;2023-02-11T06:18:23;93357.81;;;-7.22;91.37
10958;BME280;5531;42.570;23.676;2023-02-11T06:20:53;93347.63;;;-7.22;91.94
10958;BME280;5531;42.570;23.676;2023-02-11T06:23:22;93351.97;;;-7.25;92.93
10958;BME280;5531;42.570;23.676;2023-02-11T06:25:59;93354.22;;;-7.18;93.15
10958;BME280;5531;42.570;23.676;2023-02-11T06:28:29;93361.88;;;-7.18;93.54
10958;BME280;5531;42.570;23.676;2023-02-11T06:31:04;93353.88;;;-7.08;93.34
10958;BME280;5531;42.570;23.676;2023-02-11T06:33:35;93356.84;;;-6.97;93.78
10958;BME280;5531;42.570;23.676;2023-02-11T06:36:11;93352.47;;;-6.93;92.67
10958;BME280;5531;42.570;23.676;2023-02-11T06:38:41;93360.09;;;-6.93;92.57
10958;BME280;5531;42.570;23.676;2023-02-11T06:41:15;93366.66;;;-6.88;92.97
10958;BME280;5531;42.570;23.676;2023-02-11T06:43:45;93365.66;;;-6.84;93.34
10958;BME280;5531;42.570;23.676;2023-02-11T06:46:15;93361.44;;;-6.85;92.67
10958;BME280;5531;42.570;23.676;2023-02-11T06:48:44;93361.97;;;-6.76;93.26
10958;BME280;5531;42.570;23.676;2023-02-11T06:51:16;93356.47;;;-6.66;93.20
10958;BME280;5531;42.570;23.676;2023-02-11T06:53:46;93363.75;;;-6.56;93.20
10958;BME280;5531;42.570;23.676;2023-02-11T06:56:22;93362.59;;;-6.49;92.96
10958;BME280;5531;42.570;23.676;2023-02-11T06:58:53;93360.63;;;-6.42;92.95
10958;BME280;5531;42.570;23.676;2023-02-11T07:01:25;93360.31;;;-6.35;92.10
10958;BME280;5531;42.570;23.676;2023-02-11T07:03:55;93365.28;;;-6.32;92.11
10958;BME280;5531;42.570;23.676;2023-02-11T07:06:25;93364.06;;;-6.23;92.11
10958;BME280;5531;42.570;23.676;2023-02-11T07:08:55;93357.19;;;-6.21;91.23
10958;BME280;5531;42.570;23.676;2023-02-11T07:11:28;93355.53;;;-6.22;91.21
10958;BME280;5531;42.570;23.676;2023-02-11T07:14:01;93358.53;;;-6.12;90.50
10958;BME280;5531;42.570;23.676;2023-02-11T07:16:34;93360.16;;;-6.11;91.12
10958;BME280;5531;42.570;23.676;2023-02-11T07:19:03;93361.84;;;-6.10;90.29
10958;BME280;5531;42.570;23.676;2023-02-11T07:21:33;93363.38;;;-6.06;90.67
10958;BME280;5531;42.570;23.676;2023-02-11T07:24:05;93363.88;;;-5.98;90.05
10958;BME280;5531;42.570;23.676;2023-02-11T07:26:40;93360.41;;;-5.97;89.92
10958;BME280;5531;42.570;23.676;2023-02-11T07:29:10;93365.44;;;-5.95;90.23
10958;BME280;5531;42.570;23.676;2023-02-11T07:31:39;93366.13;;;-5.92;89.37
10958;BME280;5531;42.570;23.676;2023-02-11T07:34:09;93363.19;;;-5.82;89.70
10958;BME280;5531;42.570;23.676;2023-02-11T07:36:39;93357.19;;;-5.62;88.96
10958;BME280;5531;42.570;23.676;2023-02-11T07:39:08;93363.06;;;-5.79;88.38
10958;BME280;5531;42.570;23.676;2023-02-11T07:41:44;93362.66;;;-5.70;88.10
10958;BME280;5531;42.570;23.676;2023-02-11T07:44:14;93353.00;;;-5.63;87.72
10958;BME280;5531;42.570;23.676;2023-02-11T07:46:44;93349.63;;;-5.64;87.43
10958;BME280;5531;42.570;23.676;2023-02-11T07:49:14;93361.44;;;-5.61;87.50
10958;BME280;5531;42.570;23.676;2023-02-11T07:51:44;93342.75;;;-5.62;87.43
10958;BME280;5531;42.570;23.676;2023-02-11T07:54:16;93339.69;;;-5.70;87.77
10958;BME280;5531;42.570;23.676;2023-02-11T07:56:48;93345.59;;;-5.49;87.93
10958;BME280;5531;42.570;23.676;2023-02-11T07:59:18;93353.00;;;-5.44;86.78
10958;BME280;5531;42.570;23.676;2023-02-11T08:01:47;93349.09;;;-5.32;87.23
10958;BME280;5531;42.570;23.676;2023-02-11T08:04:16;93341.16;;;-5.26;86.60
10958;BME280;5531;42.570;23.676;2023-02-11T08:06:46;93347.16;;;-5.08;86.54
10958;BME280;5531;42.570;23.676;2023-02-11T08:09:21;93349.25;;;-4.99;85.68
10958;BME280;5531;42.570;23.676;2023-02-11T08:11:57;93337.22;;;-4.97;84.73
10958;BME280;5531;42.570;23.676;2023-02-11T08:14:26;93342.84;;;-4.89;84.65
10958;BME280;5531;42.570;23.676;2023-02-11T08:16:57;93352.91;;;-4.86;84.26
10958;BME280;5531;42.570;23.676;2023-02-11T08:19:34;93335.06;;;-4.87;84.00
10958;BME280;5531;42.570;23.676;2023-02-11T08:22:04;93338.41;;;-4.68;84.23
10958;BME280;5531;42.570;23.676;2023-02-11T08:24:33;93342.88;;;-4.54;83.16
10958;BME280;5531;42.570;23.676;2023-02-11T08:27:05;93347.63;;;-4.46;82.92
10958;BME280;5531;42.570;23.676;2023-02-11T08:29:35;93341.09;;;-4.34;82.77
10958;BME280;5531;42.570;23.676;2023-02-11T08:32:05;93347.69;;;-4.30;82.50
10958;BME280;5531;42.570;23.676;2023-02-11T08:34:34;93343.88;;;-4.21;82.22
10958;BME280;5531;42.570;23.676;2023-02-11T08:37:11;93344.97;;;-4.10;81.83
10958;BME280;5531;42.570;23.676;2023-02-11T08:39:50;93349.88;;;-4.05;81.70
10958;BME280;5531;42.570;23.676;2023-02-11T08:42:34;93353.31;;;-4.06;81.94
10958;BME280;5531;42.570;23.676;2023-02-11T08:45:08;93345.13;;;-4.13;81.57
10958;BME280;5531;42.570;23.676;2023-02-11T08:47:37;93359.81;;;-3.99;82.15
10958;BME280;5531;42.570;23.676;2023-02-11T08:50:08;93341.59;;;-3.93;81.42
10958;BME280;5531;42.570;23.676;2023-02-11T08:52:37;93342.94;;;-3.85;81.04
10958;BME280;5531;42.570;23.676;2023-02-11T08:55:07;93356.00;;;-3.74;81.48
10958;BME280;5531;42.570;23.676;2023-02-11T08:57:39;93347.00;;;-3.65;80.83
10958;BME280;5531;42.570;23.676;2023-02-11T09:00:11;93353.56;;;-3.60;80.30
10958;BME280;5531;42.570;23.676;2023-02-11T09:02:41;93348.72;;;-3.48;79.81
10958;BME280;5531;42.570;23.676;2023-02-11T09:05:11;93351.03;;;-3.44;79.96
10958;BME280;5531;42.570;23.676;2023-02-11T09:07:41;93352.38;;;-3.37;78.70
10958;BME280;5531;42.570;23.676;2023-02-11T09:10:18;93354.69;;;-3.32;78.75
10958;BME280;5531;42.570;23.676;2023-02-11T09:12:50;93351.91;;;-3.27;79.92
10958;BME280;5531;42.570;23.676;2023-02-11T09:15:20;93352.22;;;-3.18;79.46
10958;BME280;5531;42.570;23.676;2023-02-11T09:17:52;93350.50;;;-3.17;80.63
10958;BME280;5531;42.570;23.676;2023-02-11T09:20:28;93347.09;;;-3.02;78.13
10958;BME280;5531;42.570;23.676;2023-02-11T09:22:58;93350.66;;;-2.88;78.01
10958;BME280;5531;42.570;23.676;2023-02-11T09:25:27;93341.56;;;-2.78;78.09
10958;BME280;5531;42.570;23.676;2023-02-11T09:27:59;93347.25;;;-2.73;77.83
10958;BME280;5531;42.570;23.676;2023-02-11T09:30:28;93340.03;;;-2.66;78.72
10958;BME280;5531;42.570;23.676;2023-02-11T09:32:57;93336.88;;;-2.55;77.46
10958;BME280;5531;42.570;23.676;2023-02-11T09:35:26;93332.94;;;-2.31;77.81
10958;BME280;5531;42.570;23.676;2023-02-11T09:37:55;93324.81;;;-2.23;75.96
10958;BME280;5531;42.570;23.676;2023-02-11T09:40:24;93317.94;;;-2.23;74.54
10958;BME280;5531;42.570;23.676;2023-02-11T09:43:00;93320.88;;;-2.14;74.88
10958;BME280;5531;42.570;23.676;2023-02-11T09:45:34;93320.88;;;-2.14;75.55
10958;BME280;5531;42.570;23.676;2023-02-11T09:48:13;93310.16;;;-2.07;75.12
10958;BME280;5531;42.570;23.676;2023-02-11T09:50:46;93312.56;;;-1.89;74.61
10958;BME280;5531;42.570;23.676;2023-02-11T09:53:23;93307.50;;;-1.91;74.08
10958;BME280;5531;42.570;23.676;2023-02-11T09:55:54;93302.00;;;-1.99;74.28
10958;BME280;5531;42.570;23.676;2023-02-11T09:58:31;93298.91;;;-1.90;74.96
10958;BME280;5531;42.570;23.676;2023-02-11T10:01:11;93298.53;;;-1.83;72.54
10958;BME280;5531;42.570;23.676;2023-02-11T10:03:57;93286.97;;;-1.76;72.58
10958;BME280;5531;42.570;23.676;2023-02-11T10:06:38;93281.22;;;-1.80;73.65
10958;BME280;5531;42.570;23.676;2023-02-11T10:12:26;93280.31;;;-1.64;70.66
10958;BME280;5531;42.570;23.676;2023-02-11T10:15:29;93277.25;;;-1.71;71.61
10958;BME280;5531;42.570;23.676;2023-02-11T10:18:20;93270.47;;;-1.72;72.00
10958;BME280;5531;42.570;23.676;2023-02-11T10:21:05;93266.34;;;-1.60;71.79
10958;BME280;5531;42.570;23.676;2023-02-11T10:23:43;93252.84;;;-1.50;71.30
10958;BME280;5531;42.570;23.676;2023-02-11T10:26:15;93252.69;;;-1.34;71.67
10958;BME280;5531;42.570;23.676;2023-02-11T10:28:47;93257.47;;;-1.27;69.94
10958;BME280;5531;42.570;23.676;2023-02-11T10:31:22;93244.63;;;-1.27;69.20
10958;BME280;5531;42.570;23.676;2023-02-11T10:33:57;93241.78;;;-1.23;68.79
10958;BME280;5531;42.570;23.676;2023-02-11T10:36:29;93235.81;;;-1.23;67.49
10958;BME280;5531;42.570;23.676;2023-02-11T10:38:59;93225.34;;;-1.20;69.57
10958;BME280;5531;42.570;23.676;2023-02-11T10:41:33;93230.53;;;-1.07;70.74
10958;BME280;5531;42.570;23.676;2023-02-11T10:44:06;93217.50;;;-0.92;68.91
10958;BME280;5531;42.570;23.676;2023-02-11T10:46:38;93211.50;;;-0.78;68.00
10958;BME280;5531;42.570;23.676;2023-02-11T10:49:07;93203.66;;;-0.76;67.62
10958;BME280;5531;42.570;23.676;2023-02-11T10:51:37;93207.59;;;-0.70;66.90
10958;BME280;5531;42.570;23.676;2023-02-11T10:54:11;93203.28;;;-0.70;67.91
10958;BME280;5531;42.570;23.676;2023-02-11T10:56:47;93195.56;;;-0.44;67.36
10958;BME280;5531;42.570;23.676;2023-02-11T10:59:24;93194.78;;;-0.32;65.15
10958;BME280;5531;42.570;23.676;2023-02-11T11:02:00;93189.84;;;-0.22;66.12
10958;BME280;5531;42.570;23.676;2023-02-11T11:04:40;93194.38;;;-0.26;64.60
10958;BME280;5531;42.570;23.676;2023-02-11T11:07:18;93186.66;;;-0.26;64.54
10958;BME280;5531;42.570;23.676;2023-02-11T11:09:50;93190.34;;;-0.17;65.59
10958;BME280;5531;42.570;23.676;2023-02-11T11:12:26;93178.91;;;0.00;63.41
10958;BME280;5531;42.570;23.676;2023-02-11T11:14:58;93183.63;;;0.06;62.78
10958;BME280;5531;42.570;23.676;2023-02-11T11:17:31;93175.00;;;-0.06;62.89
10958;BME280;5531;42.570;23.676;2023-02-11T11:20:23;93170.53;;;0.09;63.42
10958;BME280;5531;42.570;23.676;2023-02-11T11:23:09;93169.31;;;0.15;62.07
10958;BME280;5531;42.570;23.676;2023-02-11T11:25:41;93165.75;;;0.29;63.03
10958;BME280;5531;42.570;23.676;2023-02-11T11:28:20;93172.56;;;0.43;63.07
10958;BME280;5531;42.570;23.676;2023-02-11T11:30:52;93167.56;;;0.52;62.69
10958;BME280;5531;42.570;23.676;2023-02-11T11:33:27;93169.03;;;0.44;61.80
10958;BME280;5531;42.570;23.676;2023-02-11T11:36:03;93168.44;;;0.27;61.27
10958;BME280;5531;42.570;23.676;2023-02-11T11:38:36;93163.81;;;0.20;63.38
10958;BME280;5531;42.570;23.676;2023-02-11T11:41:18;93162.75;;;0.35;62.92
10958;BME280;5531;42.570;23.676;2023-02-11T11:43:59;93159.75;;;0.41;62.11
10958;BME280;5531;42.570;23.676;2023-02-11T11:46:32;93169.38;;;0.63;63.28
10958;BME280;5531;42.570;23.676;2023-02-11T11:49:16;93164.09;;;0.65;62.02
10958;BME280;5531;42.570;23.676;2023-02-11T11:51:52;93152.59;;;0.82;62.96
10958;BME280;5531;42.570;23.676;2023-02-11T11:54:24;93145.78;;;0.81;62.94
10958;BME280;5531;42.570;23.676;2023-02-11T11:57:00;93141.56;;;0.80;63.24
10958;BME280;5531;42.570;23.676;2023-02-11T11:59:31;93141.44;;;0.81;62.63
10958;BME280;5531;42.570;23.676;2023-02-11T12:02:18;93127.53;;;0.84;62.89
10958;BME280;5531;42.570;23.676;2023-02-11T12:05:02;93134.34;;;0.85;62.71
10958;BME280;5531;42.570;23.676;2023-02-11T12:07:47;93130.31;;;0.81;60.42
10958;BME280;5531;42.570;23.676;2023-02-11T12:10:37;93121.81;;;0.91;62.44
10958;BME280;5531;42.570;23.676;2023-02-11T12:13:15;93123.59;;;1.02;62.10
10958;BME280;5531;42.570;23.676;2023-02-11T12:15:54;93119.56;;;1.22;59.37
10958;BME280;5531;42.570;23.676;2023-02-11T12:18:42;93121.56;;;1.30;59.29
10958;BME280;5531;42.570;23.676;2023-02-11T12:21:31;93125.69;;;1.33;57.53
10958;BME280;5531;42.570;23.676;2023-02-11T12:24:29;93115.38;;;1.33;56.68
10958;BME280;5531;42.570;23.676;2023-02-11T12:27:07;93115.59;;;1.30;57.09
10958;BME280;5531;42.570;23.676;2023-02-11T12:29:46;93108.06;;;1.26;56.95
10958;BME280;5531;42.570;23.676;2023-02-11T12:32:27;93107.63;;;1.33;55.87
10958;BME280;5531;42.570;23.676;2023-02-11T12:35:13;93101.06;;;1.40;55.71
10958;BME280;5531;42.570;23.676;2023-02-11T12:38:04;93095.88;;;1.40;58.04
10958;BME280;5531;42.570;23.676;2023-02-11T12:40:40;93090.28;;;1.46;57.48
10958;BME280;5531;42.570;23.676;2023-02-11T12:43:19;93094.41;;;1.60;57.33
10958;BME280;5531;42.570;23.676;2023-02-11T12:46:09;93093.69;;;1.58;54.30
10958;BME280;5531;42.570;23.676;2023-02-11T12:48:55;93090.66;;;1.75;53.75
10958;BME280;5531;42.570;23.676;2023-02-11T12:51:44;93087.72;;;1.80;53.61
10958;BME280;5531;42.570;23.676;2023-02-11T12:54:24;93086.75;;;1.92;53.05
10958;BME280;5531;42.570;23.676;2023-02-11T12:56:59;93084.91;;;1.94;52.90
10958;BME280;5531;42.570;23.676;2023-02-11T12:59:39;93079.84;;;2.04;54.25
10958;BME280;5531;42.570;23.676;2023-02-11T13:02:17;93083.59;;;2.11;53.17
10958;BME280;5531;42.570;23.676;2023-02-11T13:04:52;93075.34;;;2.17;54.24
10958;BME280;5531;42.570;23.676;2023-02-11T13:07:27;93075.34;;;2.17;52.98
10958;BME280;5531;42.570;23.676;2023-02-11T13:10:04;93074.22;;;2.10;52.26
10958;BME280;5531;42.570;23.676;2023-02-11T13:12:35;93070.09;;;2.08;54.01
10958;BME280;5531;42.570;23.676;2023-02-11T13:15:17;93069.38;;;2.06;53.77
10958;BME280;5531;42.570;23.676;2023-02-11T13:17:53;93060.91;;;2.15;53.55
10958;BME280;5531;42.570;23.676;2023-02-11T13:20:32;93061.63;;;2.17;52.59
10958;BME280;5531;42.570;23.676;2023-02-11T13:23:12;93059.59;;;2.32;53.94
10958;BME280;5531;42.570;23.676;2023-02-11T13:25:53;93063.44;;;2.37;51.28
10958;BME280;5531;42.570;23.676;2023-02-11T13:28:36;93062.75;;;2.35;51.25
10958;BME280;5531;42.570;23.676;2023-02-11T13:31:08;93060.84;;;2.37;52.11
10958;BME280;5531;42.570;23.676;2023-02-11T13:33:41;93058.84;;;2.41;52.14
10958;BME280;5531;42.570;23.676;2023-02-11T13:36:19;93057.78;;;2.44;52.13
10958;BME280;5531;42.570;23.676;2023-02-11T13:38:59;93058.59;;;2.44;51.79
10958;BME280;5531;42.570;23.676;2023-02-11T13:41:37;93057.88;;;2.53;52.63
10958;BME280;5531;42.570;23.676;2023-02-11T13:44:27;93056.81;;;2.56;51.93
10958;BME280;5531;42.570;23.676;2023-02-11T13:46:59;93054.88;;;2.69;52.27
10958;BME280;5531;42.570;23.676;2023-02-11T13:49:32;93048.75;;;2.70;50.69